createdAt,value
2019-04-04T00:02:17.129Z,14.28
2019-04-04T00:04:46.780Z,14.40
2019-04-04T00:07:15.546Z,12.25
2019-04-04T00:09:44.262Z,18.40
2019-04-04T00:12:12.978Z,11.40
2019-04-04T00:14:44.259Z,12.98
2019-04-04T00:17:13.139Z,21.45
2019-04-04T00:19:41.850Z,12.47
2019-04-04T00:22:10.601Z,14.50
2019-04-04T00:24:39.927Z,13.75
2019-04-04T00:27:08.706Z,15.35
2019-04-04T00:29:38.453Z,12.98
2019-04-04T00:32:07.161Z,12.82
2019-04-04T00:34:35.876Z,15.98
2019-04-04T00:37:05.250Z,14.03
2019-04-04T00:39:34.120Z,15.72
2019-04-04T00:42:02.832Z,13.20
2019-04-04T00:44:31.574Z,13.10
2019-04-04T00:47:01.816Z,16.32
2019-04-04T00:49:30.689Z,12.50
2019-04-04T00:51:59.459Z,12.75
2019-04-04T00:54:28.272Z,17.52
2019-04-04T00:56:57.237Z,14.90
2019-04-04T00:59:27.452Z,14.65
2019-04-04T01:01:57.001Z,12.80
2019-04-04T01:04:26.460Z,16.35
2019-04-04T01:06:55.141Z,19.02
2019-04-04T01:09:23.852Z,14.47
2019-04-04T01:11:52.568Z,13.00
2019-04-04T01:14:22.337Z,19.87
2019-04-04T01:16:52.285Z,16.02
2019-04-04T01:19:21.195Z,12.30
2019-04-04T01:21:53.035Z,14.53
2019-04-04T01:24:20.382Z,14.13
2019-04-04T01:26:49.148Z,16.20
2019-04-04T01:29:17.902Z,16.23
2019-04-04T01:31:46.683Z,12.20
2019-04-04T01:34:15.419Z,11.48
2019-04-04T01:36:44.138Z,13.53
2019-04-04T01:39:12.930Z,14.53
2019-04-04T01:41:43.578Z,13.28
2019-04-04T01:44:12.221Z,10.60
2019-04-04T01:46:41.864Z,17.60
2019-04-04T01:49:10.507Z,16.82
2019-04-04T01:51:39.151Z,12.45
2019-04-04T01:54:07.867Z,12.93
2019-04-04T01:56:37.054Z,13.75
2019-04-04T01:59:07.509Z,11.88
2019-04-04T02:01:36.354Z,13.83
2019-04-04T02:04:04.999Z,15.78
2019-04-04T02:06:33.580Z,13.13
2019-04-04T02:09:02.820Z,16.32
2019-04-04T02:11:32.393Z,13.50
2019-04-04T02:14:05.108Z,17.25
2019-04-04T02:16:33.717Z,12.45
2019-04-04T02:19:02.461Z,13.88
2019-04-04T02:21:31.090Z,13.75
2019-04-04T02:24:01.660Z,12.80
2019-04-04T02:26:30.660Z,20.10
2019-04-04T02:29:01.014Z,16.30
2019-04-04T02:31:31.310Z,14.90
2019-04-04T02:34:05.339Z,10.72
2019-04-04T02:36:33.922Z,19.75
2019-04-04T02:39:11.152Z,11.10
2019-04-04T02:41:39.815Z,14.38
2019-04-04T02:44:08.773Z,14.45
2019-04-04T02:46:38.610Z,15.98
2019-04-04T02:49:07.259Z,16.10
2019-04-04T02:51:40.158Z,13.08
2019-04-04T02:54:06.324Z,15.03
2019-04-04T02:56:36.104Z,16.70
2019-04-04T02:59:06.433Z,21.10
2019-04-04T03:01:35.119Z,17.60
2019-04-04T03:04:03.857Z,15.88
2019-04-04T03:06:32.491Z,16.07
2019-04-04T03:09:01.002Z,14.43
2019-04-04T03:11:29.651Z,13.13
2019-04-04T03:13:58.290Z,15.30
2019-04-04T03:16:26.986Z,16.62
2019-04-04T03:18:56.815Z,16.75
2019-04-04T03:21:25.458Z,15.18
2019-04-04T03:23:53.990Z,22.52
2019-04-04T03:26:22.633Z,16.42
2019-04-04T03:28:52.753Z,15.25
2019-04-04T03:31:21.446Z,17.52
2019-04-04T03:33:50.103Z,14.93
2019-04-04T03:36:18.744Z,14.83
2019-04-04T03:38:47.601Z,19.75
2019-04-04T03:41:16.091Z,16.57
2019-04-04T03:43:48.096Z,12.53
2019-04-04T03:46:15.073Z,15.60
2019-04-04T03:48:43.789Z,16.10
2019-04-04T03:51:15.240Z,15.15
2019-04-04T03:53:51.440Z,14.65
2019-04-04T03:56:20.102Z,17.10
2019-04-04T03:58:48.667Z,17.65
2019-04-04T04:01:17.354Z,19.90
2019-04-04T04:03:46.003Z,19.27
2019-04-04T04:06:14.666Z,15.08
2019-04-04T04:08:43.339Z,14.35
2019-04-04T04:11:11.991Z,18.27
2019-04-04T04:13:40.634Z,14.93
2019-04-04T04:16:09.241Z,14.25
2019-04-04T04:18:38.170Z,17.35
2019-04-04T04:21:09.716Z,14.63
2019-04-04T04:23:37.198Z,15.08
2019-04-04T04:26:09.500Z,16.62
2019-04-04T04:28:36.208Z,14.70
2019-04-04T04:31:04.862Z,16.62
2019-04-04T04:33:33.441Z,12.65
2019-04-04T04:36:02.074Z,18.55
2019-04-04T04:38:30.831Z,18.80
2019-04-04T04:41:00.937Z,17.48
2019-04-04T04:43:32.419Z,20.70
2019-04-04T04:45:59.993Z,13.30
2019-04-04T04:48:31.836Z,13.28
2019-04-04T04:50:58.928Z,14.15
2019-04-04T04:53:27.474Z,23.92
2019-04-04T04:55:59.481Z,14.83
2019-04-04T04:58:26.490Z,16.82
2019-04-04T05:00:55.109Z,16.27
2019-04-04T05:03:24.268Z,13.43
2019-04-04T05:05:53.593Z,20.40
2019-04-04T05:08:22.448Z,17.57
2019-04-04T05:10:51.033Z,17.57
2019-04-04T05:13:19.691Z,16.70
2019-04-04T05:15:48.376Z,26.57
2019-04-04T05:18:17.165Z,19.42
2019-04-04T05:20:45.808Z,15.25
2019-04-04T05:23:15.605Z,20.05
2019-04-04T05:25:53.841Z,25.72
2019-04-04T05:28:15.359Z,34.67
2019-04-04T05:30:46.839Z,30.20
2019-04-04T05:33:14.567Z,22.17
2019-04-04T05:35:43.221Z,24.95
2019-04-04T05:38:12.468Z,22.95
2019-04-04T05:40:41.880Z,21.87
2019-04-04T05:43:10.940Z,26.25
2019-04-04T05:45:39.775Z,25.55
2019-04-04T05:48:08.339Z,32.53
2019-04-04T05:50:37.102Z,24.90
2019-04-04T05:53:06.014Z,25.10
2019-04-04T05:55:35.692Z,35.73
2019-04-04T05:58:04.415Z,22.70
2019-04-04T06:00:34.172Z,30.80
2019-04-04T06:03:02.885Z,24.52
2019-04-04T06:05:31.886Z,35.15
2019-04-04T06:08:01.069Z,48.23
2019-04-04T06:10:29.749Z,64.22
2019-04-04T06:12:58.432Z,56.77
2019-04-04T06:15:27.503Z,71.25
2019-04-04T06:17:56.095Z,69.12
2019-04-04T06:20:24.745Z,84.47
2019-04-04T06:22:53.481Z,57.45
2019-04-04T06:25:22.038Z,54.80
2019-04-04T06:27:50.701Z,51.88
2019-04-04T06:30:20.151Z,39.58
2019-04-04T06:32:49.279Z,43.17
2019-04-04T06:35:17.922Z,26.87
2019-04-04T06:37:46.641Z,29.05
2019-04-04T06:40:15.712Z,30.72
2019-04-04T06:42:46.011Z,23.50
2019-04-04T06:45:16.353Z,22.27
2019-04-04T06:47:45.037Z,20.77
2019-04-04T06:50:14.700Z,28.10
2019-04-04T06:52:43.381Z,29.30
2019-04-04T06:55:12.340Z,17.98
2019-04-04T06:57:40.997Z,27.17
2019-04-04T07:00:10.494Z,25.02
2019-04-04T07:02:39.179Z,22.13
2019-04-04T07:05:10.760Z,20.37
2019-04-04T07:07:43.169Z,18.77
2019-04-04T07:10:11.067Z,18.92
2019-04-04T07:12:39.543Z,21.90
2019-04-04T07:15:12.447Z,19.30
2019-04-04T07:17:41.307Z,23.35
2019-04-04T07:20:11.595Z,15.50
2019-04-04T07:22:40.276Z,25.25
2019-04-04T07:25:09.190Z,30.00
2019-04-04T07:27:45.330Z,26.42
2019-04-04T07:30:15.494Z,21.27
2019-04-04T07:32:44.544Z,20.68
2019-04-04T07:35:16.850Z,20.97
2019-04-04T07:37:45.623Z,22.85
2019-04-04T07:40:14.495Z,23.62
2019-04-04T07:42:47.906Z,22.95
2019-04-04T07:45:15.326Z,24.98
2019-04-04T07:47:46.678Z,21.65
2019-04-04T07:50:14.600Z,26.33
2019-04-04T07:52:43.240Z,24.47
2019-04-04T07:55:12.149Z,22.60
2019-04-04T07:57:40.831Z,19.25
2019-04-04T08:00:10.789Z,26.77
2019-04-04T08:02:39.471Z,31.45
2019-04-04T08:05:09.427Z,24.50
2019-04-04T08:07:38.080Z,21.65
2019-04-04T08:10:20.080Z,17.10
2019-04-04T08:12:38.540Z,25.20
2019-04-04T08:15:08.339Z,22.73
2019-04-04T08:17:37.461Z,14.28
2019-04-04T08:20:06.813Z,15.60
2019-04-04T08:22:35.470Z,12.93
2019-04-04T08:25:05.248Z,15.38
2019-04-04T08:27:33.836Z,26.07
2019-04-04T08:30:05.282Z,15.58
2019-04-04T08:32:36.611Z,14.35
2019-04-04T08:35:08.311Z,18.05
2019-04-04T08:37:39.837Z,14.95
2019-04-04T08:40:10.615Z,16.60
2019-04-04T08:42:39.306Z,15.10
2019-04-04T08:45:09.426Z,20.45
2019-04-04T08:47:38.136Z,14.07
2019-04-04T08:50:10.306Z,15.78
2019-04-04T08:52:38.938Z,15.78
2019-04-04T08:55:08.456Z,13.90
2019-04-04T08:57:37.120Z,17.30
2019-04-04T09:00:08.355Z,11.15
2019-04-04T09:02:38.796Z,9.60
2019-04-04T09:05:12.234Z,9.53
2019-04-04T09:07:43.458Z,12.20
2019-04-04T09:10:13.471Z,13.50
2019-04-04T09:12:44.929Z,12.00
2019-04-04T09:15:13.518Z,11.50
2019-04-04T09:17:43.874Z,12.53
2019-04-04T09:20:13.285Z,12.03
2019-04-04T09:22:41.954Z,12.63
2019-04-04T09:25:12.841Z,12.70
2019-04-04T09:27:42.485Z,15.20
2019-04-04T09:30:12.187Z,14.13
2019-04-04T09:32:41.351Z,9.43
2019-04-04T09:35:10.394Z,16.23
2019-04-04T09:37:39.042Z,18.07
2019-04-04T09:40:09.504Z,15.08
2019-04-04T09:42:38.163Z,18.75
2019-04-04T09:45:09.267Z,11.97
2019-04-04T09:47:38.356Z,11.30
2019-04-04T09:50:09.281Z,18.90
2019-04-04T09:52:37.917Z,19.37
2019-04-04T09:55:08.924Z,15.53
2019-04-04T09:57:37.578Z,21.17
2019-04-04T10:00:09.146Z,12.33
2019-04-04T10:02:37.876Z,12.40
2019-04-04T10:05:08.224Z,15.38
2019-04-04T10:07:37.131Z,12.00
2019-04-04T10:10:10.968Z,9.33
2019-04-04T10:12:40.673Z,16.93
2019-04-04T10:15:09.810Z,11.15
2019-04-04T10:17:38.544Z,13.65
2019-04-04T10:20:07.714Z,11.60
2019-04-04T10:22:36.388Z,14.07
2019-04-04T10:25:20.907Z,15.32
2019-04-04T10:30:51.666Z,12.37
2019-04-04T10:33:20.374Z,15.93
2019-04-04T10:35:48.890Z,12.53
2019-04-04T10:38:17.853Z,14.20
2019-04-04T10:40:46.568Z,16.35
2019-04-04T10:43:15.238Z,16.27
2019-04-04T10:45:44.104Z,10.90
2019-04-04T10:48:13.936Z,12.47
2019-04-04T10:50:42.563Z,15.08
2019-04-04T10:53:12.712Z,16.82
2019-04-04T10:55:41.372Z,20.30
2019-04-04T10:58:10.589Z,14.20
2019-04-04T11:00:39.249Z,19.77
2019-04-04T11:03:10.803Z,14.18
2019-04-04T11:05:39.372Z,17.30
2019-04-04T11:08:08.085Z,17.92
2019-04-04T11:10:36.741Z,20.00
2019-04-04T11:13:05.511Z,19.80
2019-04-04T11:15:34.176Z,11.03
2019-04-04T11:18:02.881Z,13.38
2019-04-04T11:20:31.476Z,14.90
2019-04-04T11:23:00.201Z,15.32
2019-04-04T11:25:30.371Z,23.67
2019-04-04T11:27:59.027Z,12.00
2019-04-04T11:30:28.786Z,16.25
2019-04-04T11:32:57.439Z,19.27
2019-04-04T11:35:26.098Z,16.32
2019-04-04T11:37:54.820Z,16.73
2019-04-04T11:40:23.417Z,13.50
2019-04-04T11:42:52.076Z,17.87
2019-04-04T11:45:20.738Z,12.85
2019-04-04T11:47:56.984Z,13.50
2019-04-04T11:50:25.692Z,12.43
2019-04-04T11:52:55.812Z,17.05
2019-04-04T11:55:25.928Z,20.50
2019-04-04T11:58:19.905Z,15.40
2019-04-04T12:00:39.967Z,18.60
2019-04-04T12:03:10.406Z,23.35
2019-04-04T12:05:48.339Z,14.83
2019-04-04T12:08:17.286Z,15.93
2019-04-04T12:10:47.400Z,50.58
2019-04-04T12:13:16.089Z,16.82
2019-04-04T12:15:44.786Z,20.23
2019-04-04T12:18:13.475Z,12.95
2019-04-04T12:20:43.549Z,13.88
2019-04-04T12:23:17.697Z,11.55
2019-04-04T12:25:46.955Z,13.98
2019-04-04T12:28:15.629Z,13.83
2019-04-04T12:30:44.372Z,11.10
2019-04-04T12:33:13.136Z,14.05
2019-04-04T12:35:41.844Z,16.20
2019-04-04T12:38:10.731Z,10.13
2019-04-04T12:40:39.402Z,15.65
2019-04-04T12:43:08.122Z,15.40
2019-04-04T12:45:36.849Z,16.45
2019-04-04T12:48:05.475Z,18.87
2019-04-04T12:50:34.636Z,15.45
2019-04-04T12:53:03.489Z,14.93
2019-04-04T12:55:32.131Z,17.98
2019-04-04T12:58:00.772Z,18.42
2019-04-04T13:00:29.459Z,21.65
2019-04-04T13:02:58.065Z,13.93
2019-04-04T13:05:26.710Z,17.23
2019-04-04T13:07:55.296Z,15.30
2019-04-04T13:10:32.965Z,21.25
2019-04-04T13:12:55.302Z,19.70
2019-04-04T13:15:24.009Z,20.52
2019-04-04T13:17:57.855Z,14.15
2019-04-04T13:20:26.494Z,14.23
2019-04-04T13:22:55.315Z,13.65
2019-04-04T13:25:24.076Z,17.23
2019-04-04T13:27:52.647Z,11.90
2019-04-04T13:30:21.894Z,10.28
2019-04-04T13:32:50.539Z,16.12
2019-04-04T13:35:19.178Z,16.00
2019-04-04T13:37:47.905Z,10.85
2019-04-04T13:40:16.679Z,15.03
2019-04-04T13:42:45.430Z,14.78
2019-04-04T13:45:15.543Z,11.25
2019-04-04T13:47:44.184Z,12.15
2019-04-04T13:50:13.380Z,12.98
2019-04-04T13:52:42.020Z,13.18
2019-04-04T13:55:10.671Z,14.53
2019-04-04T13:57:41.030Z,14.73
2019-04-04T14:00:10.979Z,10.68
2019-04-04T14:02:39.625Z,14.55
2019-04-04T14:05:13.977Z,10.78
2019-04-04T14:07:43.686Z,15.63
2019-04-04T14:10:16.852Z,20.40
2019-04-04T14:12:44.323Z,13.88
2019-04-04T14:15:12.984Z,13.05
2019-04-04T14:17:43.900Z,12.13
2019-04-04T14:20:14.678Z,14.90
2019-04-04T14:22:43.329Z,11.03
2019-04-04T14:25:12.254Z,12.98
2019-04-04T14:27:43.528Z,11.03
2019-04-04T14:30:15.275Z,16.50
2019-04-04T14:32:44.097Z,18.77
2019-04-04T14:35:12.735Z,14.55
2019-04-04T14:37:41.235Z,17.45
2019-04-04T14:40:10.796Z,12.60
2019-04-04T14:42:39.540Z,13.50
2019-04-04T14:45:09.913Z,17.45
2019-04-04T14:47:38.636Z,13.48
2019-04-04T14:50:10.436Z,16.57
2019-04-04T14:52:39.749Z,16.77
2019-04-04T14:55:09.113Z,15.00
2019-04-04T14:57:37.767Z,13.38
2019-04-04T15:00:09.653Z,14.30
2019-04-04T15:02:38.400Z,11.18
2019-04-04T15:05:07.461Z,11.65
2019-04-04T15:07:36.116Z,13.22
2019-04-04T15:10:05.334Z,11.38
2019-04-04T15:12:33.922Z,16.37
2019-04-04T15:15:04.330Z,12.03
2019-04-04T15:17:32.981Z,15.13
2019-04-04T15:20:01.629Z,12.88
2019-04-04T15:22:31.911Z,12.05
2019-04-04T15:25:00.752Z,11.63
2019-04-04T15:27:29.535Z,13.25
2019-04-04T15:29:58.655Z,14.40
2019-04-04T15:32:27.301Z,15.15
2019-04-04T15:34:57.128Z,13.43
2019-04-04T15:37:25.828Z,11.05
2019-04-04T15:39:55.349Z,19.27
2019-04-04T15:42:23.997Z,13.60
2019-04-04T15:44:52.654Z,9.30
2019-04-04T15:47:21.927Z,12.47
2019-04-04T15:49:50.402Z,16.52
2019-04-04T15:52:19.069Z,13.53
2019-04-04T15:54:47.760Z,17.10
2019-04-04T15:57:16.431Z,13.68
2019-04-04T15:59:45.019Z,16.70
2019-04-04T16:02:13.706Z,14.87
2019-04-04T16:04:42.356Z,12.30
2019-04-04T16:07:11.671Z,12.18
2019-04-04T16:09:40.331Z,16.90
2019-04-04T16:12:08.940Z,12.53
2019-04-04T16:14:38.470Z,15.43
2019-04-04T16:17:07.789Z,15.23
2019-04-04T16:19:36.378Z,19.48
2019-04-04T16:22:06.679Z,15.15
2019-04-04T16:24:35.576Z,14.15
2019-04-04T16:27:04.517Z,14.87
2019-04-04T16:29:33.190Z,15.23
2019-04-04T16:32:01.980Z,15.78
2019-04-04T16:34:30.494Z,17.55
2019-04-04T16:36:59.135Z,14.53
2019-04-04T16:39:27.823Z,11.90
2019-04-04T16:42:02.461Z,12.95
2019-04-04T16:44:27.499Z,13.98
2019-04-04T16:46:56.710Z,19.35
2019-04-04T16:49:26.452Z,17.27
2019-04-04T16:51:55.131Z,15.98
2019-04-04T16:54:23.755Z,14.55
2019-04-04T16:56:52.496Z,17.02
2019-04-04T16:59:21.146Z,17.02
2019-04-04T17:01:50.263Z,14.95
2019-04-04T17:04:18.917Z,16.82
2019-04-04T17:06:47.608Z,14.95
2019-04-04T17:09:16.568Z,13.90
2019-04-04T17:11:45.220Z,11.73
2019-04-04T17:14:13.868Z,12.25
2019-04-04T17:16:42.565Z,13.98
2019-04-04T17:19:11.148Z,14.53
2019-04-04T17:21:39.733Z,14.93
2019-04-04T17:24:08.704Z,16.97
2019-04-04T17:26:37.283Z,16.52
2019-04-04T17:29:06.033Z,15.30
2019-04-04T17:31:34.717Z,15.78
2019-04-04T17:34:03.358Z,13.32
2019-04-04T17:36:32.096Z,16.70
2019-04-04T17:39:00.683Z,12.30
2019-04-04T17:41:29.336Z,12.40
2019-04-04T17:43:58.105Z,20.25
2019-04-04T17:46:26.756Z,19.25
2019-04-04T17:48:55.403Z,17.80
2019-04-04T17:51:24.069Z,13.70
2019-04-04T17:53:53.551Z,11.10
2019-04-04T17:56:22.466Z,10.40
2019-04-04T17:58:51.111Z,15.35
2019-04-04T18:01:19.762Z,16.27
2019-04-04T18:03:49.430Z,11.20
2019-04-04T18:06:19.234Z,13.78
2019-04-04T18:08:54.419Z,19.60
2019-04-04T18:11:23.087Z,21.15
2019-04-04T18:13:51.818Z,25.57
2019-04-04T18:16:22.969Z,20.25
2019-04-04T18:18:51.641Z,15.83
2019-04-04T18:21:20.333Z,25.88
2019-04-04T18:23:48.973Z,18.23
2019-04-04T18:26:17.632Z,16.95
2019-04-04T18:28:46.330Z,21.75
2019-04-04T18:31:14.984Z,18.12
2019-04-04T18:33:43.650Z,19.35
2019-04-04T18:36:12.902Z,19.17
2019-04-04T18:38:41.677Z,21.52
2019-04-04T18:41:10.396Z,17.17
2019-04-04T18:43:39.042Z,15.63
2019-04-04T18:46:08.016Z,15.03
2019-04-04T18:48:36.595Z,21.12
2019-04-04T18:51:05.350Z,19.52
2019-04-04T18:53:34.108Z,21.50
2019-04-04T18:56:02.756Z,21.40
2019-04-04T18:58:31.339Z,18.57
2019-04-04T19:01:00.017Z,23.55
2019-04-04T19:03:29.878Z,16.77
2019-04-04T19:05:58.694Z,16.50
2019-04-04T19:08:27.440Z,21.02
2019-04-04T19:10:56.026Z,18.67
2019-04-04T19:13:25.725Z,16.48
2019-04-04T19:15:54.415Z,20.90
2019-04-04T19:18:24.500Z,18.23
2019-04-04T19:24:15.886Z,17.67
2019-04-04T19:26:48.446Z,13.03
2019-04-04T19:29:18.542Z,17.75
2019-04-04T19:31:47.194Z,12.33
2019-04-04T19:34:15.888Z,13.78
2019-04-04T19:36:44.617Z,12.98
2019-04-04T19:39:19.278Z,15.63
2019-04-04T19:41:51.097Z,14.98
2019-04-04T19:44:19.746Z,18.27
2019-04-04T19:46:48.406Z,12.00
2019-04-04T19:49:17.036Z,16.80
2019-04-04T19:51:45.688Z,11.00
2019-04-04T19:54:14.336Z,15.63
2019-04-04T19:56:44.829Z,14.70
2019-04-04T19:59:50.489Z,13.10
2019-04-04T20:02:20.229Z,10.10
2019-04-04T20:04:49.217Z,12.15
2019-04-04T20:07:19.144Z,14.05
2019-04-04T20:09:47.755Z,14.85
2019-04-04T20:12:16.436Z,15.25
2019-04-04T20:14:46.595Z,15.75
2019-04-04T20:17:15.255Z,15.88
2019-04-04T20:19:47.637Z,15.72
2019-04-04T20:22:16.368Z,12.95
2019-04-04T20:24:45.612Z,13.25
2019-04-04T20:27:14.576Z,15.45
2019-04-04T20:29:43.629Z,16.10
2019-04-04T20:32:12.337Z,12.90
2019-04-04T20:34:40.841Z,18.87
2019-04-04T20:37:11.433Z,14.50
2019-04-04T20:39:40.082Z,15.65
2019-04-04T20:42:08.743Z,18.80
2019-04-04T20:44:38.804Z,13.95
2019-04-04T20:47:07.386Z,12.45
2019-04-04T20:49:36.075Z,19.50
2019-04-04T20:52:05.050Z,17.15
2019-04-04T20:54:33.700Z,15.85
2019-04-04T20:57:02.399Z,12.85
2019-04-04T20:59:32.197Z,17.50
2019-04-04T21:02:00.844Z,14.93
2019-04-04T21:04:29.394Z,13.38
2019-04-04T21:06:58.035Z,15.08
2019-04-04T21:09:27.971Z,16.35
2019-04-04T21:11:56.668Z,14.28
2019-04-04T21:14:26.297Z,20.08
2019-04-04T21:16:54.942Z,10.93
2019-04-04T21:19:23.983Z,12.58
2019-04-04T21:21:52.657Z,14.50
2019-04-04T21:24:21.218Z,13.72
2019-04-04T21:26:50.466Z,12.45
2019-04-04T21:29:19.711Z,13.70
2019-04-04T21:31:48.365Z,13.50
2019-04-04T21:34:18.553Z,15.95
2019-04-04T21:36:47.134Z,11.00
2019-04-04T21:39:15.815Z,11.80
2019-04-04T21:41:44.465Z,15.55
2019-04-04T21:44:13.106Z,14.23
2019-04-04T21:46:41.674Z,13.98
2019-04-04T21:49:10.404Z,19.12
2019-04-04T21:51:38.954Z,15.28
2019-04-04T21:54:07.591Z,14.90
2019-04-04T21:56:36.286Z,13.28
2019-04-04T21:59:06.338Z,15.85
2019-04-04T22:01:35.082Z,15.65
2019-04-04T22:04:03.780Z,14.15
2019-04-04T22:06:32.418Z,14.40
2019-04-04T22:09:01.059Z,18.07
2019-04-04T22:11:29.681Z,10.35
2019-04-04T22:13:58.332Z,18.85
2019-04-04T22:16:26.907Z,13.55
2019-04-04T22:18:55.519Z,23.35
2019-04-04T22:21:24.101Z,11.90
2019-04-04T22:23:52.751Z,11.38
2019-04-04T22:26:21.436Z,17.55
2019-04-04T22:28:50.074Z,9.70
2019-04-04T22:31:18.721Z,16.87
2019-04-04T22:33:47.328Z,15.95
2019-04-04T22:36:15.980Z,14.90
2019-04-04T22:38:44.637Z,10.68
2019-04-04T22:41:14.215Z,11.60
2019-04-04T22:43:42.724Z,13.35
2019-04-04T22:46:11.382Z,14.93
2019-04-04T22:48:40.041Z,12.65
2019-04-04T22:51:08.692Z,16.02
2019-04-04T22:53:37.281Z,12.80
2019-04-04T22:56:05.923Z,10.40
2019-04-04T22:58:34.576Z,10.72
2019-04-04T23:01:03.269Z,11.40
2019-04-04T23:03:31.919Z,13.70
2019-04-04T23:06:00.568Z,13.03
2019-04-04T23:08:29.308Z,13.75
2019-04-04T23:10:57.879Z,14.40
2019-04-04T23:13:26.522Z,12.37
2019-04-04T23:15:55.222Z,12.68
2019-04-04T23:18:23.724Z,17.25
2019-04-04T23:20:52.380Z,21.20
2019-04-04T23:23:21.078Z,13.10
2019-04-04T23:25:49.980Z,13.62
2019-04-04T23:28:18.487Z,16.80
2019-04-04T23:30:47.168Z,22.32
2019-04-04T23:33:15.847Z,13.98
2019-04-04T23:35:44.465Z,12.68
2019-04-04T23:38:13.334Z,12.90
2019-04-04T23:40:42.308Z,13.28
2019-04-04T23:43:10.954Z,16.05
2019-04-04T23:45:39.614Z,11.73
2019-04-04T23:48:08.259Z,15.32
2019-04-04T23:50:36.901Z,17.40
2019-04-04T23:53:05.527Z,12.37
2019-04-04T23:55:34.109Z,12.43
2019-04-04T23:58:02.757Z,14.90
